Time;durP1;ratioP1;P1;durP2;ratioP2;P2;SDS_P1;SDS_P2;PMS_P1;PMS_P2;Temp;Humidity;BMP_temperature;BMP_pressure;BME280_temperature;BME280_humidity;BME280_pressure;Samples;Min_cycle;Max_cycle;Signal;HPM_P1;HPM_P2
2022/10/22 00:01:27;;;;;;;13.60;4.27;;;;;;;12.22;100.00;100715.72;5008404;29;20046;-73
2022/10/22 00:03:59;;;;;;;7.87;4.00;;;;;;;12.15;100.00;100718.50;5008087;29;20046;-72
2022/10/22 00:06:30;;;;;;;7.50;3.90;;;;;;;12.21;100.00;100713.16;5007978;29;20188;-73
2022/10/22 00:09:02;;;;;;;9.63;4.20;;;;;;;12.24;100.00;100712.22;5008001;29;20042;-71
2022/10/22 00:11:34;;;;;;;11.43;4.75;;;;;;;12.16;100.00;100713.22;5008026;29;20035;-73
2022/10/22 00:14:05;;;;;;;8.97;4.23;;;;;;;12.15;100.00;100710.66;5007600;29;20066;-73
2022/10/22 00:16:37;;;;;;;7.53;4.70;;;;;;;12.16;100.00;100710.63;5008678;29;20472;-72
2022/10/22 00:19:09;;;;;;;11.00;4.13;;;;;;;12.14;100.00;100711.53;5006486;29;20078;-73
2022/10/22 00:21:41;;;;;;;11.98;4.60;;;;;;;12.08;100.00;100707.31;5007269;29;20483;-73
2022/10/22 00:24:12;;;;;;;8.57;4.70;;;;;;;12.11;100.00;100709.84;5006312;29;20088;-72
2022/10/22 00:26:44;;;;;;;12.83;4.80;;;;;;;12.13;100.00;100707.22;5007830;29;20031;-72
2022/10/22 00:29:18;;;;;;;9.07;4.77;;;;;;;12.14;100.00;100708.91;5007303;29;20058;-72
2022/10/22 00:31:50;;;;;;;13.82;4.97;;;;;;;12.11;100.00;100707.25;5007217;29;20065;-72
2022/10/22 00:34:22;;;;;;;9.30;4.70;;;;;;;12.10;100.00;100709.88;5007339;29;20164;-73
2022/10/22 00:36:54;;;;;;;9.55;4.20;;;;;;;12.09;100.00;100711.66;5007183;29;20110;-72
2022/10/22 00:39:26;;;;;;;14.80;4.57;;;;;;;12.13;100.00;100708.06;5007734;29;20115;-73
2022/10/22 00:41:58;;;;;;;11.07;4.40;;;;;;;12.18;100.00;100715.81;5007040;29;20058;-73
2022/10/22 00:45:07;;;;;;;11.50;4.70;;;;;;;12.13;100.00;100715.91;5007623;29;20070;-72
2022/10/22 00:48:12;;;;;;;15.35;4.80;;;;;;;12.24;100.00;100714.84;5007352;29;20039;-72
2022/10/22 00:50:54;;;;;;;9.77;4.30;;;;;;;12.27;100.00;100720.84;5007426;29;20026;-73
2022/10/22 00:53:31;;;;;;;12.85;5.00;;;;;;;12.23;100.00;100719.19;5007881;29;20502;-73
2022/10/22 00:56:03;;;;;;;11.80;5.82;;;;;;;12.23;100.00;100711.34;5006993;29;20374;-72
2022/10/22 00:58:37;;;;;;;19.23;5.13;;;;;;;12.20;100.00;100717.50;5007158;29;20117;-73
2022/10/22 01:01:15;;;;;;;9.70;5.25;;;;;;;12.17;100.00;100714.97;5007156;29;20110;-72
2022/10/22 01:03:47;;;;;;;10.63;4.63;;;;;;;12.15;100.00;100713.25;5006909;29;20033;-72
2022/10/22 01:06:23;;;;;;;12.27;5.22;;;;;;;12.12;100.00;100716.78;5007563;29;20042;-73
2022/10/22 01:09:00;;;;;;;14.38;5.10;;;;;;;12.18;100.00;100707.97;5006771;29;20031;-73
2022/10/22 01:11:42;;;;;;;16.20;4.75;;;;;;;12.13;100.00;100715.06;5006953;29;20037;-72
2022/10/22 01:14:47;;;;;;;14.90;5.70;;;;;;;12.14;100.00;100716.75;5006418;29;20031;-72
2022/10/22 01:17:30;;;;;;;12.35;5.95;;;;;;;12.16;100.00;100713.22;5006982;29;20031;-72
2022/10/22 01:20:20;;;;;;;12.10;5.30;;;;;;;12.17;100.00;100716.69;5006954;29;20046;-73
2022/10/22 01:23:20;;;;;;;13.38;5.72;;;;;;;12.16;100.00;100720.22;5007337;29;20083;-72
2022/10/22 01:26:09;;;;;;;11.02;5.15;;;;;;;12.18;100.00;100713.19;5005791;29;20180;-72
2022/10/22 01:28:59;;;;;;;13.38;6.20;;;;;;;12.15;100.00;100714.13;5006713;29;20031;-73
2022/10/22 01:31:35;;;;;;;12.85;5.57;;;;;;;12.15;100.00;100710.66;5006260;29;20041;-72
2022/10/22 01:34:08;;;;;;;11.52;5.80;;;;;;;12.13;100.00;100715.91;5005253;29;20027;-72
2022/10/22 01:36:41;;;;;;;15.35;6.40;;;;;;;12.15;100.00;100713.25;5005318;29;20038;-72
2022/10/22 01:39:15;;;;;;;13.18;6.10;;;;;;;12.15;100.00;100711.50;5006466;29;20035;-72
2022/10/22 01:41:46;;;;;;;12.60;6.20;;;;;;;12.10;100.00;100704.66;5006694;29;20463;-72
2022/10/22 01:44:32;;;;;;;11.77;7.03;;;;;;;12.10;100.00;100699.44;5006356;29;20042;-72
2022/10/22 01:47:30;;;;;;;14.15;6.72;;;;;;;12.09;100.00;100697.72;5005956;29;20501;-72
2022/10/22 01:50:34;;;;;;;13.52;6.10;;;;;;;12.06;100.00;100708.22;5006629;29;20022;-72
2022/10/22 01:53:18;;;;;;;11.07;6.25;;;;;;;12.09;100.00;100697.72;5006145;29;20121;-72
2022/10/22 01:56:30;;;;;;;18.30;6.38;;;;;;;12.07;100.00;100704.72;5006276;29;20099;-72
2022/10/22 01:59:20;;;;;;;9.27;5.63;;;;;;;12.03;100.00;100702.16;5006486;29;20401;-72
2022/10/22 02:02:03;;;;;;;15.32;6.38;;;;;;;12.02;100.00;100703.03;5005716;29;20069;-72
2022/10/22 02:05:15;;;;;;;14.50;6.18;;;;;;;11.98;100.00;100716.22;5005960;29;20030;-72
2022/10/22 02:07:51;;;;;;;16.75;6.97;;;;;;;11.97;100.00;100707.50;5004048;29;20039;-72
2022/10/22 02:10:23;;;;;;;14.45;6.80;;;;;;;11.91;100.00;100706.75;5006921;29;20034;-72
2022/10/22 02:12:57;;;;;;;12.35;7.10;;;;;;;11.93;100.00;100708.47;5005855;29;20039;-72
2022/10/22 02:15:32;;;;;;;14.80;6.50;;;;;;;11.93;100.00;100716.31;5004666;29;20035;-73
2022/10/22 02:18:06;;;;;;;14.40;7.32;;;;;;;11.89;100.00;100722.44;5005340;29;20030;-72
2022/10/22 02:20:41;;;;;;;12.13;6.88;;;;;;;11.91;100.00;100719.81;5005824;29;20534;-73
2022/10/22 02:23:12;;;;;;;16.52;7.10;;;;;;;11.84;100.00;100714.69;5005702;29;20035;-73
2022/10/22 02:25:50;;;;;;;19.33;6.97;;;;;;;11.80;100.00;100713.03;5004997;29;20094;-73
2022/10/22 02:28:34;;;;;;;18.40;7.95;;;;;;;11.80;100.00;100713.03;5005442;29;20065;-72
2022/10/22 02:31:13;;;;;;;11.32;6.72;;;;;;;11.76;100.00;100716.59;5004996;29;20031;-72
2022/10/22 02:33:48;;;;;;;17.52;7.82;;;;;;;11.77;100.00;100714.84;5005385;29;20035;-73
2022/10/22 02:36:20;;;;;;;16.38;8.25;;;;;;;11.71;100.00;100709.75;5003923;29;20036;-72
2022/10/22 02:38:53;;;;;;;14.25;7.05;;;;;;;11.76;100.00;100708.75;5005529;29;20027;-72
2022/10/22 02:41:24;;;;;;;;;;;;;;;11.66;100.00;100709.84;5005668;29;20034;-72
2022/10/22 02:43:55;;;;;;;15.35;6.60;;;;;;;11.72;100.00;100708.84;5005755;29;19917;-73
2022/10/22 02:46:27;;;;;;;16.43;7.37;;;;;;;11.72;100.00;100704.50;5005056;29;20051;-72
2022/10/22 02:48:59;;;;;;;13.13;7.23;;;;;;;11.77;100.00;100717.44;5005502;29;20067;-73
2022/10/22 02:51:30;;;;;;;11.63;6.80;;;;;;;11.69;100.00;100725.44;4989246;29;20559;-73
2022/10/22 02:54:02;;;;;;;15.77;7.33;;;;;;;11.68;100.00;100718.50;5005689;29;20035;-73
2022/10/22 02:56:33;;;;;;;12.10;6.40;;;;;;;11.66;100.00;100717.66;5005132;29;20027;-72
2022/10/22 02:59:04;;;;;;;15.70;7.50;;;;;;;11.62;100.00;100723.81;5006156;29;20071;-72
2022/10/22 03:01:36;;;;;;;15.67;7.67;;;;;;;11.63;100.00;100718.56;5012712;29;20122;-73
2022/10/22 03:04:07;;;;;;;17.13;8.30;;;;;;;11.63;100.00;100720.34;5014340;29;20061;-73
2022/10/22 03:06:42;;;;;;;17.50;7.23;;;;;;;11.58;100.00;100722.16;5015751;29;20046;-74
2022/10/22 03:09:15;;;;;;;16.30;7.45;;;;;;;11.59;100.00;100722.13;5011444;29;20063;-73
2022/10/22 03:11:46;;;;;;;17.45;8.50;;;;;;;11.56;100.00;100730.03;5009106;29;20123;-72
2022/10/22 03:14:17;;;;;;;13.97;7.23;;;;;;;11.58;100.00;100733.47;5009048;29;20122;-72
2022/10/22 03:16:49;;;;;;;15.37;6.97;;;;;;;11.55;100.00;100730.91;5009098;29;20034;-72
2022/10/22 03:19:20;;;;;;;16.87;7.63;;;;;;;11.56;100.00;100727.41;5008613;29;20058;-72
2022/10/22 03:21:59;;;;;;;18.37;7.93;;;;;;;11.53;100.00;100731.81;5008913;29;20039;-72
2022/10/22 03:24:37;;;;;;;15.70;7.00;;;;;;;11.55;100.00;100725.69;5009611;29;20126;-72
2022/10/22 03:27:11;;;;;;;13.38;6.75;;;;;;;11.56;100.00;100736.97;5007491;29;20031;-72
2022/10/22 03:29:43;;;;;;;17.02;7.30;;;;;;;11.63;100.00;100736.84;5008510;29;20123;-72
2022/10/22 03:32:14;;;;;;;12.88;7.78;;;;;;;11.67;100.00;100738.53;5008695;29;20092;-72
2022/10/22 03:34:46;;;;;;;25.20;8.27;;;;;;;11.72;100.00;100735.84;5008972;29;20038;-73
2022/10/22 03:37:18;;;;;;;16.97;8.57;;;;;;;11.70;100.00;100734.13;5008651;29;20129;-73
2022/10/22 03:39:50;;;;;;;17.08;6.72;;;;;;;11.68;100.00;100734.16;5008634;29;20035;-72
2022/10/22 03:42:23;;;;;;;15.45;7.07;;;;;;;11.80;100.00;100751.34;5008306;29;20054;-72
2022/10/22 03:44:54;;;;;;;14.27;7.35;;;;;;;11.78;100.00;100759.19;5008547;29;20054;-73
2022/10/22 03:47:26;;;;;;;15.47;7.30;;;;;;;11.75;100.00;100751.44;5008418;29;20083;-73
2022/10/22 03:49:57;;;;;;;17.38;7.13;;;;;;;11.71;100.00;100749.78;5007825;29;20039;-72
2022/10/22 03:52:35;;;;;;;20.20;6.73;;;;;;;11.73;100.00;100762.81;5008762;29;20095;-73
2022/10/22 03:55:07;;;;;;;14.75;6.82;;;;;;;11.72;100.00;100764.56;5008291;29;20075;-72
2022/10/22 03:57:39;;;;;;;12.48;6.43;;;;;;;11.72;100.00;100759.34;5008086;29;20110;-72
2022/10/22 04:00:10;;;;;;;17.70;6.60;;;;;;;11.66;100.00;100770.75;5008059;29;20114;-73
2022/10/22 04:02:42;;;;;;;11.83;5.87;;;;;;;11.64;100.00;100758.59;5008267;29;20035;-73
2022/10/22 04:05:13;;;;;;;14.03;5.73;;;;;;;11.67;100.00;100766.38;5006798;29;20119;-72
2022/10/22 04:07:45;;;;;;;15.17;6.77;;;;;;;11.73;100.00;100775.84;5008388;29;20117;-72
2022/10/22 04:10:16;;;;;;;15.77;6.93;;;;;;;11.70;100.00;100768.06;5008121;29;20087;-73
2022/10/22 04:12:48;;;;;;;19.87;6.53;;;;;;;11.68;100.00;100766.34;5007615;29;20035;-73
2022/10/22 04:15:19;;;;;;;14.70;6.17;;;;;;;11.66;100.00;100775.09;5007944;29;20039;-72
2022/10/22 04:17:51;;;;;;;18.93;6.87;;;;;;;11.71;100.00;100772.41;5007960;29;20035;-72
2022/10/22 04:20:22;;;;;;;17.73;6.77;;;;;;;11.67;100.00;100769.88;5008147;29;20042;-73
2022/10/22 04:22:54;;;;;;;16.00;6.20;;;;;;;11.69;100.00;100775.06;5007637;29;20114;-73
2022/10/22 04:25:25;;;;;;;13.57;6.60;;;;;;;11.64;100.00;100775.13;5006813;29;20047;-72
2022/10/22 04:27:56;;;;;;;20.53;6.60;;;;;;;11.62;100.00;100776.91;5007626;29;20066;-73
2022/10/22 04:30:28;;;;;;;23.90;6.90;;;;;;;11.64;100.00;100767.31;5007573;29;20084;-73
2022/10/22 04:33:00;;;;;;;20.63;6.60;;;;;;;11.60;100.00;100777.81;5007072;29;20027;-73
2022/10/22 04:35:31;;;;;;;18.17;6.33;;;;;;;11.63;100.00;100781.22;5007330;29;20455;-72
2022/10/22 04:38:02;;;;;;;17.33;6.03;;;;;;;11.61;100.00;100775.19;5007291;29;20031;-72
2022/10/22 04:40:33;;;;;;;15.43;6.63;;;;;;;11.67;100.00;100777.69;5007182;29;20031;-73
2022/10/22 04:43:05;;;;;;;26.30;7.40;;;;;;;11.69;100.00;100772.44;5007445;29;20045;-72
2022/10/22 04:45:36;;;;;;;19.40;6.67;;;;;;;11.68;100.00;100771.56;5007921;29;20444;-72
2022/10/22 04:48:08;;;;;;;22.70;8.00;;;;;;;11.68;100.00;100774.19;5007256;29;20062;-73
2022/10/22 04:50:39;;;;;;;21.30;6.63;;;;;;;11.61;100.00;100783.00;5007019;29;20042;-72
2022/10/22 04:53:10;;;;;;;17.10;7.20;;;;;;;11.60;100.00;100789.13;5007541;29;20109;-73
2022/10/22 04:55:42;;;;;;;16.57;6.47;;;;;;;11.68;100.00;100789.84;5006322;29;20088;-72
2022/10/22 04:58:13;;;;;;;19.00;6.77;;;;;;;11.76;100.00;100783.63;5006389;29;20031;-73
2022/10/22 05:00:44;;;;;;;16.33;6.80;;;;;;;11.82;100.00;100780.94;5005442;29;20108;-73
2022/10/22 05:03:16;;;;;;;16.70;7.23;;;;;;;11.85;100.00;100786.09;5005799;29;20035;-72
2022/10/22 05:05:47;;;;;;;13.87;6.37;;;;;;;11.81;100.00;100785.25;5006678;29;20480;-73
2022/10/22 05:08:18;;;;;;;19.20;6.33;;;;;;;11.83;100.00;100791.34;5006929;29;20114;-73
2022/10/22 05:10:50;;;;;;;20.30;7.13;;;;;;;11.91;100.00;100787.72;5006878;29;20198;-73
2022/10/22 05:13:21;;;;;;;24.10;7.13;;;;;;;11.90;100.00;100781.66;5007160;29;20039;-73
2022/10/22 05:15:53;;;;;;;17.20;6.23;;;;;;;11.96;100.00;100788.53;5006682;29;20524;-73
2022/10/22 05:18:24;;;;;;;16.63;6.00;;;;;;;12.01;100.00;100784.94;5006695;29;20088;-73
2022/10/22 05:20:55;;;;;;;24.43;7.57;;;;;;;12.08;100.00;100785.69;5006530;29;20031;-73
2022/10/22 05:23:27;;;;;;;15.63;6.27;;;;;;;12.13;100.00;100794.28;5006691;29;20031;-73
2022/10/22 05:26:03;;;;;;;14.13;6.53;;;;;;;12.16;100.00;100793.38;5006186;29;20499;-73
2022/10/22 05:28:34;;;;;;;19.33;6.20;;;;;;;12.15;100.00;100791.66;5005177;29;20073;-73
2022/10/22 05:31:09;;;;;;;17.20;7.07;;;;;;;12.19;100.00;100795.94;5006604;29;20058;-72
2022/10/22 05:33:42;;;;;;;14.18;6.05;;;;;;;12.24;100.00;100801.09;5006411;29;20103;-72
2022/10/22 05:36:15;;;;;;;;;;;;;;;12.24;100.00;100801.94;5006734;29;20037;-72
2022/10/22 05:38:48;;;;;;;19.20;5.28;;;;;;;12.23;100.00;100800.22;5006322;29;19949;-72
2022/10/22 05:41:24;;;;;;;20.40;5.68;;;;;;;12.20;100.00;100808.97;5005997;29;20113;-72
2022/10/22 05:43:57;;;;;;;17.25;5.47;;;;;;;12.28;100.00;100814.03;5006532;29;20034;-72
2022/10/22 05:46:32;;;;;;;15.77;6.20;;;;;;;12.29;100.00;100814.91;5006087;29;20096;-73
2022/10/22 05:49:05;;;;;;;21.77;5.25;;;;;;;12.21;100.00;100807.22;5005451;29;20062;-73
2022/10/22 05:51:36;;;;;;;18.10;5.85;;;;;;;12.27;100.00;100812.34;5006061;29;20356;-72
2022/10/22 05:54:16;;;;;;;18.47;6.17;;;;;;;12.29;100.00;100825.38;5005916;29;20075;-72
2022/10/22 05:56:48;;;;;;;13.40;4.15;;;;;;;12.24;100.00;100822.84;5006453;29;20105;-73
2022/10/22 05:59:19;;;;;;;14.77;5.50;;;;;;;12.27;100.00;100819.28;5006073;29;20087;-73
2022/10/22 06:01:50;;;;;;;17.57;4.40;;;;;;;12.17;100.00;100823.84;5006009;29;20042;-73
2022/10/22 06:04:22;;;;;;;16.03;6.93;;;;;;;12.18;100.00;100826.44;5005509;29;20030;-73
2022/10/22 06:06:53;;;;;;;13.17;4.83;;;;;;;12.19;100.00;100835.16;5005953;29;20356;-72
2022/10/22 06:09:31;;;;;;;16.10;4.63;;;;;;;12.14;100.00;100835.22;5005808;29;20027;-72
2022/10/22 06:12:02;;;;;;;11.10;4.72;;;;;;;12.11;100.00;100842.28;5005536;29;20031;-72
2022/10/22 06:14:34;;;;;;;12.53;4.97;;;;;;;12.10;100.00;100845.75;5004412;29;20041;-73
2022/10/22 06:17:05;;;;;;;21.57;5.10;;;;;;;12.08;100.00;100856.25;5005130;29;20031;-72
2022/10/22 06:19:36;;;;;;;21.13;5.07;;;;;;;12.12;100.00;100847.44;5005604;29;20367;-72
2022/10/22 06:22:08;;;;;;;18.40;4.03;;;;;;;12.11;100.00;100863.16;5005910;29;20440;-72
2022/10/22 06:24:39;;;;;;;16.20;5.20;;;;;;;12.16;100.00;100864.78;5005701;29;20045;-73
2022/10/22 06:27:10;;;;;;;14.63;5.20;;;;;;;12.20;100.00;100863.88;5004381;29;20490;-72
2022/10/22 06:29:42;;;;;;;20.83;5.97;;;;;;;12.25;100.00;100870.75;5006218;29;20463;-73
2022/10/22 06:32:13;;;;;;;15.23;4.67;;;;;;;12.25;100.00;100874.22;5005815;29;20073;-72
2022/10/22 06:34:47;;;;;;;18.40;5.13;;;;;;;12.20;100.00;100876.06;5006906;29;20031;-73
2022/10/22 06:37:18;;;;;;;17.73;5.03;;;;;;;12.20;100.00;100879.53;5008405;29;20119;-73
2022/10/22 06:39:49;;;;;;;13.10;5.13;;;;;;;12.21;100.00;100888.25;5010292;29;20070;-72
2022/10/22 06:42:21;;;;;;;15.23;5.67;;;;;;;12.19;100.00;100890.88;4992151;29;20035;-72
2022/10/22 06:44:52;;;;;;;12.40;5.10;;;;;;;12.16;100.00;100895.31;5005638;29;20122;-72
2022/10/22 06:47:23;;;;;;;17.73;4.70;;;;;;;12.18;100.00;100896.13;5005610;29;20062;-73
2022/10/22 06:49:55;;;;;;;18.07;4.90;;;;;;;12.16;100.00;100903.16;5005486;29;20034;-72
2022/10/22 06:52:26;;;;;;;17.90;5.37;;;;;;;12.18;100.00;100906.59;5005343;29;20042;-73
2022/10/22 06:54:57;;;;;;;16.90;4.87;;;;;;;12.11;100.00;100913.66;5005141;29;20031;-72
2022/10/22 06:57:29;;;;;;;19.60;4.73;;;;;;;12.14;100.00;100912.75;5004367;29;20039;-73
2022/10/22 07:00:00;;;;;;;20.47;4.70;;;;;;;12.20;100.00;100920.47;5005456;29;20057;-73
2022/10/22 07:02:32;;;;;;;13.53;5.17;;;;;;;12.17;100.00;100931.88;5005564;29;20030;-73
2022/10/22 07:05:03;;;;;;;18.10;5.53;;;;;;;12.19;100.00;100924.00;5005658;29;20031;-72
2022/10/22 07:07:35;;;;;;;21.53;5.43;;;;;;;12.18;100.00;100933.56;5004937;29;20031;-72
2022/10/22 07:10:07;;;;;;;12.47;4.00;;;;;;;12.23;100.00;100941.34;5006130;29;20039;-73
2022/10/22 07:12:38;;;;;;;18.98;5.32;;;;;;;12.30;100.00;100944.69;5005637;29;20026;-73
2022/10/22 07:15:10;;;;;;;15.07;4.20;;;;;;;12.40;100.00;100943.66;5005629;29;20043;-73
2022/10/22 07:17:41;;;;;;;16.97;5.30;;;;;;;12.53;100.00;100946.94;5005549;29;20042;-73
2022/10/22 07:20:12;;;;;;;24.53;5.23;;;;;;;12.64;100.00;100951.94;5005327;29;20519;-73
2022/10/22 07:22:44;;;;;;;13.03;4.73;;;;;;;12.74;100.00;100951.75;5005124;29;20030;-73
2022/10/22 07:25:16;;;;;;;22.83;4.80;;;;;;;12.82;100.00;100956.84;5004121;29;20039;-73
2022/10/22 07:27:47;;;;;;;14.93;4.53;;;;;;;12.89;100.00;100953.19;5004983;29;20035;-73
2022/10/22 07:30:18;;;;;;;11.93;4.40;;;;;;;12.93;100.00;100956.63;5004109;29;20114;-73
2022/10/22 07:32:50;;;;;;;15.97;4.57;;;;;;;13.01;100.00;100959.06;5005248;29;20034;-74
2022/10/22 07:35:21;;;;;;;21.33;4.50;;;;;;;13.01;100.00;100966.91;5004733;29;20062;-73
2022/10/22 07:37:52;;;;;;;13.33;4.50;;;;;;;13.04;100.00;100966.88;5005115;29;20064;-73
2022/10/22 07:40:24;;;;;;;11.80;3.87;;;;;;;13.12;100.00;100971.06;5004914;29;20026;-73
2022/10/22 07:42:55;;;;;;;15.03;4.90;;;;;;;13.24;100.00;100987.41;5005333;29;20039;-73
2022/10/22 07:45:27;;;;;;;13.20;3.67;;;;;;;13.32;100.00;100982.88;5004592;29;20057;-74
2022/10/22 07:47:59;;;;;;;15.33;3.63;;;;;;;13.46;100.00;100986.09;5007839;29;20539;-73
2022/10/22 07:50:30;;;;;;;20.50;5.72;;;;;;;13.55;100.00;100981.56;5008584;29;20049;-73
2022/10/22 07:53:02;;;;;;;18.67;5.03;;;;;;;13.56;100.00;100976.28;5008186;29;20035;-73
2022/10/22 07:55:34;;;;;;;9.30;3.07;;;;;;;13.67;100.00;100981.28;5008838;29;20035;-73
2022/10/22 07:58:05;;;;;;;17.50;4.38;;;;;;;13.75;100.00;100987.22;5008704;29;20109;-73
2022/10/22 08:00:36;;;;;;;11.33;4.17;;;;;;;13.82;100.00;100986.16;5008350;29;20046;-72
2022/10/22 08:03:10;;;;;;;12.10;3.30;;;;;;;13.89;100.00;100999.13;5007934;29;20043;-72
2022/10/22 08:05:43;;;;;;;11.52;3.25;;;;;;;13.85;100.00;101001.81;5008811;29;20027;-73
2022/10/22 08:08:15;;;;;;;10.18;3.15;;;;;;;13.85;100.00;101004.44;5008222;29;20058;-73
2022/10/22 08:10:51;;;;;;;12.77;3.13;;;;;;;13.92;100.00;101010.41;5008458;29;20045;-73
2022/10/22 08:13:23;;;;;;;15.30;4.05;;;;;;;13.91;100.00;101010.44;5008881;29;20038;-74
2022/10/22 08:15:54;;;;;;;13.70;3.33;;;;;;;14.09;100.00;101017.00;5008036;29;20114;-73
2022/10/22 08:18:26;;;;;;;14.87;3.40;;;;;;;14.32;100.00;101017.31;5008279;29;20421;-73
2022/10/22 08:20:58;;;;;;;13.40;3.38;;;;;;;14.43;100.00;101019.69;5008214;29;20498;-72
2022/10/22 08:23:29;;;;;;;14.00;3.90;;;;;;;14.49;100.00;101016.91;5007827;29;20035;-73
2022/10/22 08:26:01;;;;;;;14.37;3.23;;;;;;;14.52;100.00;101024.69;5007547;29;20416;-73
2022/10/22 08:28:35;;;;;;;9.43;3.67;;;;;;;14.63;99.98;101029.69;5006058;29;20035;-73
2022/10/22 08:31:07;;;;;;;11.73;3.20;;;;;;;14.85;99.74;101037.88;5008046;29;20038;-72
2022/10/22 08:33:39;;;;;;;11.05;2.78;;;;;;;15.21;97.93;101047.41;5006975;29;20027;-72
2022/10/22 08:36:11;;;;;;;15.38;3.15;;;;;;;15.41;95.57;101045.09;5007322;29;20042;-74
2022/10/22 08:38:42;;;;;;;12.70;3.83;;;;;;;15.51;94.79;101048.31;5007865;29;20073;-72
2022/10/22 08:41:20;;;;;;;11.97;2.63;;;;;;;15.74;92.76;101058.13;5007352;29;20046;-72
2022/10/22 08:44:15;;;;;;;8.88;2.72;;;;;;;15.93;91.67;101061.09;5006967;29;20027;-73
2022/10/22 08:47:21;;;;;;;12.52;3.33;;;;;;;16.05;91.17;101067.72;5007417;29;20138;-73
2022/10/22 08:49:54;;;;;;;9.50;2.33;;;;;;;16.06;89.87;101066.84;5006157;29;20078;-73
2022/10/22 08:52:25;;;;;;;11.38;3.30;;;;;;;16.06;88.48;101073.88;5007377;29;20069;-73
2022/10/22 08:55:00;;;;;;;11.13;3.23;;;;;;;16.05;89.17;101070.34;5006816;29;20066;-73
2022/10/22 08:58:02;;;;;;;11.63;2.97;;;;;;;16.04;88.69;101080.03;5007269;29;20105;-72
2022/10/22 09:00:51;;;;;;;10.63;3.83;;;;;;;15.97;88.13;101090.78;5007094;29;20027;-73
2022/10/22 09:04:04;;;;;;;12.13;2.97;;;;;;;16.00;88.22;101081.03;5006797;29;20058;-73
2022/10/22 09:06:38;;;;;;;10.88;3.42;;;;;;;16.09;86.61;101086.94;5006269;29;20078;-73
2022/10/22 09:09:16;;;;;;;10.38;2.30;;;;;;;16.02;87.65;101087.09;5006958;29;20033;-73
2022/10/22 09:11:53;;;;;;;17.25;3.55;;;;;;;16.09;86.70;101108.81;5006456;29;20106;-73
2022/10/22 09:14:25;;;;;;;14.18;2.97;;;;;;;15.99;86.69;101104.75;5006538;29;20039;-73
2022/10/22 09:17:15;;;;;;;11.75;3.40;;;;;;;15.83;87.36;101099.09;5006253;29;20512;-73
2022/10/22 09:20:05;;;;;;;8.35;2.88;;;;;;;15.74;87.96;101108.06;5006430;29;20524;-72
2022/10/22 09:23:04;;;;;;;11.45;2.97;;;;;;;15.69;88.64;101116.06;5006907;29;20042;-71
2022/10/22 09:25:36;;;;;;;10.43;2.83;;;;;;;15.75;89.01;101114.19;5006029;29;20487;-71
2022/10/22 09:28:08;;;;;;;10.32;2.97;;;;;;;15.77;88.65;101115.03;5006192;29;20532;-72
2022/10/22 09:30:40;;;;;;;9.77;3.08;;;;;;;15.78;88.07;101120.25;5006108;29;20049;-72
2022/10/22 09:33:14;;;;;;;14.00;3.07;;;;;;;15.77;88.43;101123.78;5006176;29;20542;-73
2022/10/22 09:35:55;;;;;;;8.85;3.30;;;;;;;15.78;89.16;101125.50;5005841;29;20038;-71
2022/10/22 09:38:30;;;;;;;14.07;3.33;;;;;;;15.72;88.26;101128.28;5006168;29;20042;-72
2022/10/22 09:41:02;;;;;;;10.75;3.00;;;;;;;15.77;88.62;101143.94;5005856;29;20088;-72
2022/10/22 09:43:35;;;;;;;9.20;2.83;;;;;;;15.76;88.41;101140.47;5006896;29;20111;-72
2022/10/22 09:46:14;;;;;;;11.45;3.67;;;;;;;15.83;88.22;101135.91;5006233;29;20055;-72
2022/10/22 09:48:54;;;;;;;9.30;3.20;;;;;;;15.92;87.84;101151.38;5005883;29;20455;-73
2022/10/22 09:51:52;;;;;;;9.32;2.60;;;;;;;16.01;87.61;101137.97;5005873;29;20035;-72
2022/10/22 09:54:36;;;;;;;12.50;3.90;;;;;;;16.12;87.26;101140.28;5005241;29;20100;-73
2022/10/22 09:57:16;;;;;;;17.63;6.50;;;;;;;16.20;86.87;101155.84;5005290;29;20035;-72
2022/10/22 09:59:50;;;;;;;12.48;4.78;;;;;;;16.14;86.75;101148.97;5005885;29;20122;-73
2022/10/22 10:02:26;;;;;;;14.95;4.78;;;;;;;16.26;86.44;101160.03;5006429;29;20070;-72
2022/10/22 10:05:01;;;;;;;9.60;3.33;;;;;;;16.35;87.09;101172.91;5005763;29;20035;-73
2022/10/22 10:07:34;;;;;;;13.45;3.35;;;;;;;16.16;86.21;101159.44;5005626;29;20072;-71
2022/10/22 10:10:20;;;;;;;12.77;3.05;;;;;;;16.16;86.58;101173.44;5005657;29;20034;-73
2022/10/22 10:13:06;;;;;;;13.52;3.72;;;;;;;16.22;86.74;101175.91;5006976;29;20081;-72
2022/10/22 10:15:51;;;;;;;12.90;4.38;;;;;;;16.35;86.41;101188.69;5011951;29;20031;-71
2022/10/22 10:18:31;;;;;;;20.88;12.48;;;;;;;16.27;86.57;101188.91;5015477;29;20079;-72
2022/10/22 10:21:34;;;;;;;17.10;4.28;;;;;;;16.23;85.83;101182.91;5010434;29;20118;-72
2022/10/22 10:24:30;;;;;;;11.30;4.85;;;;;;;16.30;86.74;101194.09;5006547;29;20494;-72
2022/10/22 10:27:11;;;;;;;16.20;3.92;;;;;;;16.59;84.93;101200.25;5006131;29;20046;-72
2022/10/22 10:30:20;;;;;;;38.90;31.17;;;;;;;16.92;84.77;101194.81;5004911;29;20388;-73
2022/10/22 10:33:09;;;;;;;10.38;3.03;;;;;;;16.99;83.37;101203.41;5006210;29;20345;-72
2022/10/22 10:35:55;;;;;;;13.90;3.22;;;;;;;16.98;82.51;101192.00;5005396;29;20023;-72
2022/10/22 10:38:42;;;;;;;10.18;3.03;;;;;;;17.13;81.76;101198.56;5004501;29;20063;-72
2022/10/22 10:41:44;;;;;;;10.70;3.03;;;;;;;17.17;82.48;101202.78;5005869;29;20144;-72
2022/10/22 10:44:16;;;;;;;10.50;3.42;;;;;;;17.50;81.14;101211.31;5005863;29;20038;-72
2022/10/22 10:47:13;;;;;;;9.20;3.17;;;;;;;17.91;78.35;101209.91;5005612;29;20051;-72
2022/10/22 10:49:45;;;;;;;10.40;3.30;;;;;;;18.14;76.48;101214.34;5005717;29;20424;-72
2022/10/22 10:53:01;;;;;;;10.90;3.55;;;;;;;18.46;77.56;101213.09;5005137;29;20038;-72
2022/10/22 10:55:39;;;;;;;14.43;3.40;;;;;;;18.52;75.28;101206.72;5004768;29;20034;-72
2022/10/22 10:58:32;;;;;;;13.00;3.85;;;;;;;18.50;76.15;101204.16;5004874;29;20039;-72
2022/10/22 11:01:18;;;;;;;8.68;3.03;;;;;;;18.35;74.18;101199.47;5004961;29;20038;-71
2022/10/22 11:04:01;;;;;;;16.25;3.03;;;;;;;18.32;74.14;101203.09;5004841;29;20086;-72
2022/10/22 11:06:35;;;;;;;12.65;3.42;;;;;;;18.86;72.26;101203.63;5004165;29;20034;-71
2022/10/22 11:09:25;;;;;;;10.95;3.55;;;;;;;18.94;72.27;101206.81;5005358;29;20091;-72
2022/10/22 11:12:02;;;;;;;11.35;3.22;;;;;;;19.08;69.93;101216.81;5004582;29;20031;-72
2022/10/22 11:15:15;;;;;;;14.30;3.70;;;;;;;19.94;68.09;101214.06;5005643;29;20481;-71
2022/10/22 11:17:47;;;;;;;9.57;3.50;;;;;;;19.95;67.43;101211.34;5004355;29;20548;-71
2022/10/22 11:20:25;;;;;;;12.20;3.10;;;;;;;20.87;63.67;101215.91;5005632;29;20171;-71
2022/10/22 11:23:21;;;;;;;11.25;3.13;;;;;;;20.87;62.92;101237.94;5008905;29;20046;-72
2022/10/22 11:25:52;;;;;;;9.88;3.15;;;;;;;19.74;64.41;101215.78;5008799;29;20143;-72
2022/10/22 11:28:30;;;;;;;11.77;3.87;;;;;;;19.77;64.71;101210.38;4992246;29;20134;-72
2022/10/22 11:31:08;;;;;;;10.98;3.28;;;;;;;20.63;63.11;101204.69;5008490;29;20031;-72
2022/10/22 11:33:58;;;;;;;10.20;3.38;;;;;;;21.21;59.23;101212.41;5008664;29;20042;-72
2022/10/22 11:36:31;;;;;;;19.40;4.55;;;;;;;22.17;58.20;101200.34;5007461;29;20479;-72
2022/10/22 11:39:03;;;;;;;10.20;3.28;;;;;;;23.01;54.05;101193.00;5008610;29;20080;-72
2022/10/22 11:41:35;;;;;;;10.20;3.42;;;;;;;23.63;51.59;101201.69;5009083;29;20063;-73
2022/10/22 11:44:21;;;;;;;11.70;3.90;;;;;;;23.28;53.42;101196.72;5008303;29;20092;-73
2022/10/22 11:47:07;;;;;;;7.85;2.75;;;;;;;22.69;53.77;101195.72;5008918;29;20058;-72
2022/10/22 11:50:03;;;;;;;8.60;2.80;;;;;;;21.98;57.06;101196.97;5007614;29;20035;-73
2022/10/22 11:52:35;;;;;;;14.77;3.83;;;;;;;20.91;59.01;101199.78;4997645;29;20080;-72
2022/10/22 11:55:50;;;;;;;12.80;3.43;;;;;;;20.47;61.43;101193.97;5008163;29;20127;-72